createdAt,value
2023-02-09T00:01:08.030Z,5.52
2023-02-09T00:03:36.885Z,5.48
2023-02-09T00:06:06.561Z,5.60
2023-02-09T00:08:37.648Z,5.51
2023-02-09T00:11:09.516Z,5.49
2023-02-09T00:13:38.347Z,5.45
2023-02-09T00:16:06.904Z,5.32
2023-02-09T00:18:35.200Z,5.34
2023-02-09T00:21:06.419Z,5.40
2023-02-09T00:23:36.821Z,5.35
2023-02-09T00:26:06.989Z,5.40
2023-02-09T00:28:35.584Z,5.42
2023-02-09T00:31:08.950Z,5.39
2023-02-09T00:33:37.830Z,5.40
2023-02-09T00:36:07.244Z,5.43
2023-02-09T00:38:35.450Z,5.43
2023-02-09T00:41:04.090Z,5.16
2023-02-09T00:43:32.742Z,4.98
2023-02-09T00:46:01.019Z,5.02
2023-02-09T00:48:30.739Z,5.02
2023-02-09T00:50:59.096Z,5.07
2023-02-09T00:53:27.285Z,5.07
2023-02-09T00:55:55.306Z,5.16
2023-02-09T00:58:24.339Z,5.08
2023-02-09T01:00:52.507Z,5.13
2023-02-09T01:03:20.548Z,5.18
2023-02-09T01:05:50.015Z,5.17
2023-02-09T01:08:18.032Z,5.15
2023-02-09T01:10:47.813Z,5.21
2023-02-09T01:13:15.983Z,5.25
2023-02-09T01:15:44.144Z,5.33
2023-02-09T01:18:12.499Z,5.28
2023-02-09T01:20:42.170Z,5.27
2023-02-09T01:23:11.616Z,5.49
2023-02-09T01:25:39.644Z,5.51
2023-02-09T01:28:07.680Z,5.54
2023-02-09T01:30:35.839Z,5.59
2023-02-09T01:33:03.891Z,5.60
2023-02-09T01:35:32.423Z,5.66
2023-02-09T01:38:00.569Z,5.70
2023-02-09T01:40:30.104Z,5.71
2023-02-09T01:42:58.233Z,5.76
2023-02-09T01:45:35.025Z,5.74
2023-02-09T01:48:04.824Z,5.84
2023-02-09T01:50:38.574Z,5.81
2023-02-09T01:53:07.973Z,5.92
2023-02-09T01:55:41.812Z,5.76
2023-02-09T01:58:14.712Z,5.90
2023-02-09T02:00:43.426Z,5.72
2023-02-09T02:03:15.907Z,5.79
2023-02-09T02:05:47.381Z,5.92
2023-02-09T02:08:20.699Z,5.89
2023-02-09T02:10:50.411Z,5.90
2023-02-09T02:13:19.105Z,5.75
2023-02-09T02:15:56.147Z,5.96
2023-02-09T02:18:36.457Z,6.01
2023-02-09T02:21:37.431Z,5.90
2023-02-09T02:24:45.968Z,5.89
2023-02-09T02:27:29.465Z,5.85
2023-02-09T02:30:27.994Z,5.85
2023-02-09T02:33:11.848Z,5.94
2023-02-09T02:35:48.022Z,5.87
2023-02-09T02:38:20.724Z,5.78
2023-02-09T02:40:58.108Z,5.78
2023-02-09T02:43:40.868Z,5.82
2023-02-09T02:46:16.759Z,5.81
2023-02-09T02:48:53.837Z,5.89
2023-02-09T02:51:31.069Z,5.77
2023-02-09T02:54:03.175Z,5.92
2023-02-09T02:56:35.677Z,5.99
2023-02-09T02:59:08.162Z,6.05
2023-02-09T03:01:43.151Z,5.96
2023-02-09T03:04:14.420Z,6.07
2023-02-09T03:06:42.477Z,6.08
2023-02-09T03:09:10.876Z,6.13
2023-02-09T03:11:41.479Z,5.90
2023-02-09T03:14:32.725Z,5.87
2023-02-09T03:17:10.792Z,5.92
2023-02-09T03:19:47.352Z,5.97
2023-02-09T03:22:23.872Z,6.02
2023-02-09T03:24:56.499Z,6.00
2023-02-09T03:27:28.503Z,5.96
2023-02-09T03:29:59.156Z,5.92
2023-02-09T03:32:28.135Z,5.97
2023-02-09T03:34:59.109Z,5.92
2023-02-09T03:37:27.434Z,5.87
2023-02-09T03:39:55.447Z,5.91
2023-02-09T03:42:23.472Z,5.93
2023-02-09T03:44:51.524Z,5.83
2023-02-09T03:47:19.533Z,5.93
2023-02-09T03:49:47.683Z,5.86
2023-02-09T03:52:17.457Z,5.91
2023-02-09T03:54:45.695Z,5.85
2023-02-09T03:57:13.745Z,5.89
2023-02-09T03:59:42.097Z,5.87
2023-02-09T04:02:11.445Z,5.90
2023-02-09T04:04:39.510Z,5.86
2023-02-09T04:07:07.976Z,5.83
2023-02-09T04:09:38.376Z,5.80
2023-02-09T04:12:07.181Z,5.60
2023-02-09T04:14:35.301Z,5.67
2023-02-09T04:17:03.439Z,5.70
2023-02-09T04:19:31.476Z,5.62
2023-02-09T04:22:00.124Z,5.75
2023-02-09T04:24:28.567Z,5.71
2023-02-09T04:26:57.964Z,5.72
2023-02-09T04:29:26.120Z,5.51
2023-02-09T04:31:54.369Z,5.54
2023-02-09T04:34:24.183Z,5.66
2023-02-09T04:36:52.410Z,5.69
2023-02-09T04:39:20.552Z,5.68
2023-02-09T04:41:48.589Z,5.50
2023-02-09T04:44:17.971Z,5.63
2023-02-09T04:46:46.028Z,5.65
2023-02-09T04:49:14.058Z,5.60
2023-02-09T04:51:42.125Z,5.54
2023-02-09T04:54:10.164Z,5.41
2023-02-09T04:56:38.889Z,5.47
2023-02-09T04:59:24.815Z,5.63
2023-02-09T05:01:54.345Z,5.50
2023-02-09T05:04:22.373Z,5.34
2023-02-09T05:06:50.410Z,5.54
2023-02-09T05:09:18.489Z,5.52
2023-02-09T05:11:46.497Z,5.47
2023-02-09T05:14:14.590Z,5.50
2023-02-09T05:16:42.634Z,5.53
2023-02-09T05:19:12.076Z,5.57
2023-02-09T05:21:40.118Z,5.62
2023-02-09T05:24:08.429Z,5.62
2023-02-09T05:26:36.678Z,5.52
2023-02-09T05:29:04.748Z,5.59
2023-02-09T05:31:32.822Z,5.63
2023-02-09T05:34:01.760Z,5.57
2023-02-09T05:36:31.210Z,5.55
2023-02-09T05:38:59.209Z,5.39
2023-02-09T05:41:43.969Z,5.39
2023-02-09T05:44:12.049Z,5.46
2023-02-09T05:46:40.048Z,5.50
2023-02-09T05:49:08.041Z,5.35
2023-02-09T05:51:37.457Z,5.35
2023-02-09T05:54:05.534Z,5.35
2023-02-09T05:56:33.628Z,5.47
2023-02-09T05:59:04.104Z,5.33
2023-02-09T06:01:32.389Z,5.33
2023-02-09T06:04:00.376Z,5.27
2023-02-09T06:06:28.486Z,5.26
2023-02-09T06:08:57.829Z,5.13
2023-02-09T06:11:25.839Z,5.25
2023-02-09T06:13:53.910Z,5.39
2023-02-09T06:16:21.981Z,5.45
2023-02-09T06:18:50.047Z,5.41
2023-02-09T06:21:18.485Z,5.28
2023-02-09T06:23:46.575Z,5.24
2023-02-09T06:26:18.048Z,5.24
2023-02-09T06:28:46.936Z,5.22
2023-02-09T06:31:15.458Z,5.19
2023-02-09T06:33:43.605Z,5.30
2023-02-09T06:36:11.931Z,5.21
2023-02-09T06:38:40.346Z,5.19
2023-02-09T06:41:08.415Z,5.21
2023-02-09T06:43:37.872Z,5.31
2023-02-09T06:46:10.169Z,5.17
2023-02-09T06:48:38.317Z,5.16
2023-02-09T06:51:09.734Z,5.07
2023-02-09T06:53:38.637Z,5.16
2023-02-09T06:56:07.268Z,5.17
2023-02-09T06:58:35.605Z,5.19
2023-02-09T07:01:05.477Z,5.13
2023-02-09T07:03:33.589Z,5.06
2023-02-09T07:06:05.297Z,5.04
2023-02-09T07:08:33.355Z,4.94
2023-02-09T07:11:03.552Z,4.93
2023-02-09T07:13:31.969Z,5.08
2023-02-09T07:16:02.111Z,4.97
2023-02-09T07:18:32.264Z,5.11
2023-02-09T07:21:01.993Z,5.19
2023-02-09T07:23:30.872Z,5.23
2023-02-09T07:26:03.176Z,5.30
2023-02-09T07:28:31.841Z,5.22
2023-02-09T07:31:04.917Z,5.25
2023-02-09T07:33:35.242Z,5.24
2023-02-09T07:36:05.245Z,5.34
2023-02-09T07:38:33.739Z,5.30
2023-02-09T07:41:02.819Z,5.18
2023-02-09T07:43:31.098Z,5.15
2023-02-09T07:46:02.619Z,5.27
2023-02-09T07:48:31.485Z,5.40
2023-02-09T07:51:01.052Z,5.35
2023-02-09T07:53:29.960Z,5.19
2023-02-09T07:55:58.311Z,5.26
2023-02-09T07:58:26.418Z,5.48
2023-02-09T08:00:54.420Z,5.45
2023-02-09T08:03:24.259Z,5.51
2023-02-09T08:05:59.494Z,5.46
2023-02-09T08:08:28.995Z,5.50
2023-02-09T08:10:59.315Z,5.76
2023-02-09T08:13:30.039Z,5.62
2023-02-09T08:16:02.930Z,5.46
2023-02-09T08:18:35.482Z,5.51
2023-02-09T08:21:06.161Z,5.67
2023-02-09T08:23:38.423Z,5.90
2023-02-09T08:26:10.378Z,5.92
2023-02-09T08:28:44.904Z,6.02
2023-02-09T08:31:13.665Z,6.12
2023-02-09T08:33:41.995Z,6.14
2023-02-09T08:36:15.069Z,6.25
2023-02-09T08:38:45.209Z,6.33
2023-02-09T08:41:15.770Z,6.41
2023-02-09T08:43:43.838Z,6.57
2023-02-09T08:46:13.948Z,6.73
2023-02-09T08:48:45.280Z,6.91
2023-02-09T08:51:15.320Z,7.09
2023-02-09T08:53:47.668Z,7.19
2023-02-09T08:56:15.793Z,7.13
2023-02-09T08:58:43.832Z,7.31
2023-02-09T09:01:13.461Z,7.59
2023-02-09T09:03:42.233Z,7.43
2023-02-09T09:06:12.171Z,7.68
2023-02-09T09:08:40.967Z,7.37
2023-02-09T09:11:13.189Z,7.24
2023-02-09T09:13:41.765Z,7.28
2023-02-09T09:16:15.582Z,7.26
2023-02-09T09:18:44.593Z,7.42
2023-02-09T09:21:12.921Z,7.35
2023-02-09T09:23:41.267Z,7.64
2023-02-09T09:26:10.857Z,7.58
2023-02-09T09:28:39.942Z,7.84
2023-02-09T09:31:12.484Z,7.91
2023-02-09T09:33:41.740Z,7.90
2023-02-09T09:36:10.829Z,8.09
2023-02-09T09:38:40.646Z,8.30
2023-02-09T09:41:20.956Z,8.35
2023-02-09T09:43:49.584Z,8.38
2023-02-09T09:46:20.334Z,8.38
2023-02-09T09:48:51.731Z,8.13
2023-02-09T09:51:23.766Z,8.32
2023-02-09T09:53:54.563Z,8.46
2023-02-09T09:56:26.852Z,8.41
2023-02-09T09:58:55.260Z,8.30
2023-02-09T10:01:23.453Z,8.34
2023-02-09T10:03:51.610Z,8.15
2023-02-09T10:06:22.174Z,8.41
2023-02-09T10:08:54.116Z,8.89
2023-02-09T10:11:28.888Z,8.97
2023-02-09T10:13:58.343Z,9.04
2023-02-09T10:16:29.169Z,9.03
2023-02-09T10:18:58.905Z,9.17
2023-02-09T10:21:30.134Z,9.27
2023-02-09T10:24:12.893Z,9.23
2023-02-09T10:26:43.135Z,9.17
2023-02-09T10:29:25.153Z,9.20
2023-02-09T10:31:58.310Z,9.22
2023-02-09T10:34:32.747Z,9.39
2023-02-09T10:37:18.791Z,9.46
2023-02-09T10:39:48.769Z,9.77
2023-02-09T10:42:24.312Z,10.00
2023-02-09T10:44:54.728Z,10.05
2023-02-09T10:47:30.053Z,10.07
2023-02-09T10:50:03.279Z,9.78
2023-02-09T10:52:35.392Z,9.69
2023-02-09T10:55:23.274Z,9.63
2023-02-09T10:57:52.918Z,9.89
2023-02-09T11:00:31.126Z,9.70
2023-02-09T11:03:02.747Z,9.84
2023-02-09T11:05:34.050Z,9.99
2023-02-09T11:08:10.094Z,9.83
2023-02-09T11:10:43.695Z,9.77
2023-02-09T11:13:19.968Z,9.83
2023-02-09T11:16:20.665Z,9.64
2023-02-09T11:18:58.182Z,9.77
2023-02-09T11:21:45.353Z,9.46
2023-02-09T11:24:19.858Z,9.56
2023-02-09T11:26:54.315Z,9.46
2023-02-09T11:29:30.497Z,9.22
2023-02-09T11:32:12.085Z,9.35
2023-02-09T11:35:10.642Z,9.29
2023-02-09T11:37:48.588Z,9.50
2023-02-09T11:40:37.358Z,9.59
2023-02-09T11:43:16.805Z,9.51
2023-02-09T11:45:48.599Z,9.72
2023-02-09T11:48:24.124Z,9.88
2023-02-09T11:51:04.305Z,9.57
2023-02-09T11:53:41.886Z,9.49
2023-02-09T11:56:12.787Z,9.62
2023-02-09T11:58:46.791Z,9.69
2023-02-09T12:01:27.312Z,9.66
2023-02-09T12:04:03.672Z,9.69
2023-02-09T12:06:38.155Z,9.70
2023-02-09T12:09:16.447Z,9.88
2023-02-09T12:11:54.006Z,9.68
2023-02-09T12:14:33.056Z,9.67
2023-02-09T12:17:16.082Z,9.72
2023-02-09T12:19:47.221Z,9.99
2023-02-09T12:22:51.653Z,9.81
2023-02-09T12:25:23.894Z,9.77
2023-02-09T12:28:16.842Z,9.63
2023-02-09T12:31:19.571Z,9.50
2023-02-09T12:34:28.921Z,9.49
2023-02-09T12:37:30.109Z,9.75
2023-02-09T12:40:22.670Z,10.04
2023-02-09T12:43:25.500Z,10.25
2023-02-09T12:46:23.318Z,10.26
2023-02-09T12:49:10.798Z,10.33
2023-02-09T12:51:43.749Z,10.38
2023-02-09T12:54:30.845Z,10.44
2023-02-09T12:57:53.275Z,10.45
2023-02-09T13:00:57.121Z,10.42
2023-02-09T13:03:27.031Z,10.45
2023-02-09T13:05:59.796Z,10.48
2023-02-09T13:08:49.842Z,10.40
2023-02-09T13:11:31.531Z,10.36
2023-02-09T13:14:03.980Z,10.36
2023-02-09T13:16:48.968Z,10.15
2023-02-09T13:19:48.089Z,10.13
2023-02-09T13:22:36.731Z,9.99
2023-02-09T13:25:16.634Z,9.91
2023-02-09T13:27:46.725Z,9.91
2023-02-09T13:30:25.226Z,9.96
2023-02-09T13:33:04.097Z,9.92
2023-02-09T13:35:35.954Z,9.61
2023-02-09T13:38:16.875Z,9.71
2023-02-09T13:40:50.564Z,9.78
2023-02-09T13:43:22.144Z,9.83
2023-02-09T13:45:52.384Z,9.89
2023-02-09T13:48:27.218Z,9.70
2023-02-09T13:50:57.418Z,9.74
2023-02-09T13:53:26.934Z,9.71
2023-02-09T13:55:57.486Z,9.81
2023-02-09T13:58:28.809Z,9.85
2023-02-09T14:01:00.255Z,9.78
2023-02-09T14:03:32.652Z,9.95
2023-02-09T14:06:04.201Z,10.04
2023-02-09T14:08:33.548Z,10.06
2023-02-09T14:11:07.383Z,9.96
2023-02-09T14:13:40.768Z,10.06
2023-02-09T14:16:08.783Z,10.06
2023-02-09T14:18:50.959Z,10.13
2023-02-09T14:21:23.458Z,9.99
2023-02-09T14:24:16.398Z,9.99
2023-02-09T14:26:48.042Z,10.13
2023-02-09T14:29:19.651Z,10.10
2023-02-09T14:31:50.403Z,10.01
2023-02-09T14:34:37.742Z,10.01
2023-02-09T14:37:29.363Z,9.94
2023-02-09T14:40:01.776Z,10.13
2023-02-09T14:42:30.939Z,10.00
2023-02-09T14:45:00.655Z,9.91
2023-02-09T14:47:32.372Z,10.06
2023-02-09T14:50:02.512Z,10.01
2023-02-09T14:52:33.257Z,9.94
2023-02-09T14:55:05.160Z,9.84
2023-02-09T14:57:36.331Z,9.95
2023-02-09T15:00:16.505Z,10.00
2023-02-09T15:02:45.608Z,9.83
2023-02-09T15:05:16.117Z,9.88
2023-02-09T15:07:48.414Z,9.97
2023-02-09T15:10:23.677Z,10.07
2023-02-09T15:12:52.426Z,10.08
2023-02-09T15:15:22.249Z,9.96
2023-02-09T15:17:51.774Z,9.93
2023-02-09T15:20:24.585Z,10.04
2023-02-09T15:22:53.006Z,9.75
2023-02-09T15:25:21.641Z,9.80
2023-02-09T15:27:52.554Z,9.81
2023-02-09T15:30:23.257Z,10.04
2023-02-09T15:32:51.703Z,10.10
2023-02-09T15:35:23.685Z,9.98
2023-02-09T15:37:55.409Z,9.93
2023-02-09T15:40:45.763Z,9.92
2023-02-09T15:43:33.939Z,9.98
2023-02-09T15:46:19.724Z,9.96
2023-02-09T15:48:48.039Z,9.90
2023-02-09T15:51:18.866Z,9.76
2023-02-09T15:53:47.973Z,9.86
2023-02-09T15:56:16.773Z,9.93
2023-02-09T15:58:48.293Z,9.81
2023-02-09T16:01:18.025Z,9.78
2023-02-09T16:03:46.799Z,9.84
2023-02-09T16:06:19.550Z,9.89
2023-02-09T16:08:49.859Z,9.90
2023-02-09T16:11:21.751Z,9.82
2023-02-09T16:13:50.888Z,9.88
2023-02-09T16:16:19.222Z,9.91
2023-02-09T16:18:48.298Z,9.91
2023-02-09T16:21:24.752Z,9.89
2023-02-09T16:23:55.660Z,9.82
2023-02-09T16:26:24.789Z,9.88
2023-02-09T16:28:54.101Z,9.76
2023-02-09T16:31:23.381Z,9.84
2023-02-09T16:33:51.766Z,9.90
2023-02-09T16:36:25.645Z,9.86
2023-02-09T16:38:53.894Z,10.01
2023-02-09T16:41:39.474Z,9.86
2023-02-09T16:44:17.733Z,9.93
2023-02-09T16:46:47.308Z,9.91
2023-02-09T16:49:35.825Z,9.95
2023-02-09T16:52:13.237Z,9.96
2023-02-09T16:54:44.864Z,9.89
2023-02-09T16:57:15.072Z,9.82
2023-02-09T16:59:43.482Z,9.84
2023-02-09T17:02:36.598Z,9.71
2023-02-09T17:05:16.243Z,9.66
2023-02-09T17:07:54.468Z,9.60
2023-02-09T17:10:26.273Z,9.46
2023-02-09T17:12:54.576Z,9.45
2023-02-09T17:15:30.697Z,9.45
2023-02-09T17:18:02.883Z,9.49
2023-02-09T17:20:37.452Z,9.48
2023-02-09T17:23:07.330Z,9.46
2023-02-09T17:25:36.417Z,9.42
2023-02-09T17:28:05.730Z,9.38
2023-02-09T17:30:35.139Z,9.37
2023-02-09T17:33:05.737Z,9.38
2023-02-09T17:36:03.501Z,9.41
2023-02-09T17:38:26.549Z,9.42
2023-02-09T17:40:56.695Z,9.51
2023-02-09T17:43:25.729Z,9.55
2023-02-09T17:45:54.320Z,9.51
2023-02-09T17:48:23.640Z,9.53
2023-02-09T17:50:57.944Z,9.54
2023-02-09T17:53:29.688Z,9.59
2023-02-09T17:55:57.980Z,9.60
2023-02-09T17:58:26.516Z,9.54
2023-02-09T18:00:56.110Z,9.49
2023-02-09T18:03:26.129Z,9.46
2023-02-09T18:05:58.527Z,9.47
2023-02-09T18:08:28.599Z,9.48
2023-02-09T18:10:58.800Z,9.44
2023-02-09T18:13:27.788Z,9.42
2023-02-09T18:15:56.583Z,9.40
2023-02-09T18:18:24.961Z,9.44
2023-02-09T18:20:53.198Z,9.45
2023-02-09T18:23:23.048Z,9.37
2023-02-09T18:25:56.092Z,9.34
2023-02-09T18:28:24.523Z,9.34
2023-02-09T18:30:52.821Z,9.42
2023-02-09T18:33:21.168Z,9.40
2023-02-09T18:35:49.757Z,9.44
2023-02-09T18:38:18.438Z,9.42
2023-02-09T18:40:46.833Z,9.47
2023-02-09T18:43:16.652Z,9.51
2023-02-09T18:45:45.485Z,9.55
2023-02-09T18:48:14.421Z,9.66
2023-02-09T18:50:42.823Z,9.70
2023-02-09T18:53:12.897Z,9.72
2023-02-09T18:55:41.224Z,9.72
2023-02-09T18:58:10.409Z,9.70
2023-02-09T19:00:40.112Z,9.72
2023-02-09T19:03:08.402Z,9.68
2023-02-09T19:05:36.727Z,9.68
2023-02-09T19:08:07.390Z,9.76
2023-02-09T19:10:36.130Z,9.81
2023-02-09T19:13:05.232Z,9.80
2023-02-09T19:15:34.712Z,9.88
2023-02-09T19:18:04.498Z,9.83
2023-02-09T19:20:34.679Z,9.77
2023-02-09T19:23:03.928Z,9.74
2023-02-09T19:25:33.210Z,9.80
2023-02-09T19:28:01.629Z,9.79
2023-02-09T19:30:36.623Z,9.82
2023-02-09T19:33:09.370Z,9.82
2023-02-09T19:35:37.704Z,9.89
2023-02-09T19:38:05.896Z,9.88
2023-02-09T19:40:40.760Z,9.86
2023-02-09T19:43:09.242Z,9.83
2023-02-09T19:45:37.786Z,9.85
2023-02-09T19:48:07.457Z,9.82
2023-02-09T19:50:38.071Z,9.93
2023-02-09T19:53:07.385Z,9.95
2023-02-09T19:55:36.260Z,9.98
2023-02-09T19:58:04.600Z,9.97
2023-02-09T20:00:33.111Z,9.92
2023-02-09T20:03:01.474Z,9.91
2023-02-09T20:05:29.794Z,10.01
2023-02-09T20:07:59.834Z,9.84
2023-02-09T20:10:28.168Z,9.86
2023-02-09T20:12:56.512Z,9.89
2023-02-09T20:15:24.912Z,9.79
2023-02-09T20:17:53.267Z,9.86
2023-02-09T20:20:21.567Z,9.84
2023-02-09T20:22:50.990Z,9.95
2023-02-09T20:25:20.719Z,9.94
2023-02-09T20:27:50.222Z,9.97
2023-02-09T20:30:19.019Z,10.04
2023-02-09T20:32:47.298Z,10.00
2023-02-09T20:35:15.739Z,10.09
2023-02-09T20:37:44.088Z,10.10
2023-02-09T20:40:13.038Z,10.13
2023-02-09T20:43:00.053Z,10.13
2023-02-09T20:45:45.867Z,10.16
2023-02-09T20:48:14.863Z,10.15
2023-02-09T20:50:45.242Z,10.05
2023-02-09T20:53:14.054Z,10.14
2023-02-09T20:55:42.932Z,10.22
2023-02-09T20:58:13.792Z,10.25
2023-02-09T21:00:42.390Z,10.24
2023-02-09T21:03:10.746Z,10.24
2023-02-09T21:05:39.158Z,10.22
2023-02-09T21:08:09.235Z,10.11
2023-02-09T21:10:38.600Z,9.92
2023-02-09T21:13:07.982Z,9.81
2023-02-09T21:15:40.752Z,9.75
2023-02-09T21:18:09.347Z,9.68
2023-02-09T21:20:37.903Z,9.54
2023-02-09T21:23:06.225Z,9.50
2023-02-09T21:25:34.665Z,9.45
2023-02-09T21:28:03.052Z,9.35
2023-02-09T21:30:31.451Z,9.31
2023-02-09T21:33:01.173Z,9.25
2023-02-09T21:35:29.674Z,9.22
2023-02-09T21:37:57.977Z,9.15
2023-02-09T21:40:26.271Z,9.12
2023-02-09T21:42:54.649Z,9.05
2023-02-09T21:45:22.925Z,8.97
2023-02-09T21:47:51.773Z,8.91
2023-02-09T21:50:22.258Z,8.82
2023-02-09T21:52:50.949Z,8.82
2023-02-09T21:55:19.361Z,8.78
2023-02-09T21:57:47.752Z,8.73
2023-02-09T22:00:16.898Z,8.70
2023-02-09T22:02:45.619Z,8.67
2023-02-09T22:05:13.926Z,8.62
2023-02-09T22:07:45.650Z,8.61
2023-02-09T22:10:13.995Z,8.58
2023-02-09T22:12:42.411Z,8.49
2023-02-09T22:15:11.522Z,8.50
2023-02-09T22:17:40.581Z,8.45
2023-02-09T22:20:11.111Z,8.39
2023-02-09T22:22:39.905Z,8.35
2023-02-09T22:25:10.181Z,8.31
2023-02-09T22:27:38.447Z,8.28
2023-02-09T22:30:07.265Z,8.28
2023-02-09T22:32:35.678Z,8.30
2023-02-09T22:35:03.989Z,8.26
2023-02-09T22:37:32.283Z,8.22
2023-02-09T22:40:00.548Z,8.24
2023-02-09T22:42:30.220Z,8.23
2023-02-09T22:44:58.475Z,8.20
2023-02-09T22:47:26.806Z,8.19
2023-02-09T22:49:55.065Z,8.20
2023-02-09T22:52:23.452Z,8.19
2023-02-09T22:54:51.969Z,8.19
2023-02-09T22:57:20.522Z,8.18
2023-02-09T22:59:50.289Z,8.14
2023-02-09T23:02:18.633Z,8.14
2023-02-09T23:04:46.941Z,8.15
2023-02-09T23:07:15.291Z,8.07
2023-02-09T23:09:43.658Z,8.06
2023-02-09T23:12:12.012Z,7.93
2023-02-09T23:14:40.269Z,7.99
2023-02-09T23:17:09.941Z,7.99
2023-02-09T23:19:40.292Z,7.92
2023-02-09T23:22:08.572Z,7.94
2023-02-09T23:24:36.859Z,7.97
2023-02-09T23:27:05.276Z,7.96
2023-02-09T23:29:33.541Z,7.97
2023-02-09T23:32:01.808Z,7.91
2023-02-09T23:34:32.981Z,7.92
2023-02-09T23:37:13.114Z,7.89
2023-02-09T23:39:47.263Z,7.88
2023-02-09T23:42:15.588Z,7.90
2023-02-09T23:44:43.845Z,7.88
2023-02-09T23:47:12.137Z,7.84
2023-02-09T23:49:41.808Z,7.83
2023-02-09T23:52:10.129Z,7.79
2023-02-09T23:54:38.382Z,7.78
2023-02-09T23:57:06.664Z,7.76
2023-02-09T23:59:34.996Z,7.75
